Latest Weather Observations for Hobart

IDT60801

Issued at 12:35 am EDT Thursday 27 November 2014 (issued every 30 minutes, with the page automatically refreshed every 10 minutes)

About weather observations | Map of weather stations | Latest weather observations for TAS | Other Formats
Station Details ID: 094029 Name: HOBART (ELLERSLIE ROAD) Lat: -42.89 Lon: 147.33 Height: 50.5 m
Data from the previous 72 hours. | See also: Recent months at Hobart
Date/Time
EDT
Temp
°C
App
Temp
°C
Dew
Point
Rel
Hum
%
Delta-T
°C
Wind Press
QNH
hPa
Press
MSL
hPa
Rain
since 9 am
mm
Dir
 
Spd
km/h
Gust
km/h
Spd
kts
Gust
kts
27/12:30am 11.3 7.9 1.9 52 4.0 SW 9 19 5 10 1021.1 1021.1 0.2
27/12:00am 11.7 7.9 1.5 49 4.3 W 11 20 6 11 1021.2 1021.2 0.2
 
Date/Time
EDT
Temp
°C
App
Temp
°C
Dew
Point
Rel
Hum
%
Delta-T
°C
Wind Press
QNH
hPa
Press
MSL
hPa
Rain
since 9 am
mm
Dir
 
Spd
km/h
Gust
km/h
Spd
kts
Gust
kts
26/11:30pm 11.6 7.9 2.3 53 4.0 W 11 20 6 11 1021.1 1021.1 0.2
26/11:00pm 11.7 9.3 2.1 51 4.1 S 4 9 2 5 1021.1 1021.1 0.2
26/10:30pm 11.9 8.0 0.9 47 4.6 W 11 20 6 11 1020.9 1020.9 0.2
26/10:00pm 12.2 8.3 1.3 47 4.6 NW 11 20 6 11 1020.7 1020.7 0.2
26/09:30pm 12.3 8.5 1.5 47 4.6 W 11 20 6 11 1020.3 1020.3 0.2
26/09:00pm 12.4 9.0 1.6 47 4.6 S 9 24 5 13 1019.9 1019.9 0.2
26/08:30pm 12.8 8.9 1.3 45 4.9 S 11 20 6 11 1019.6 1019.6 0.2
26/08:00pm 12.9 8.5 2.9 50 4.4 SW 15 20 8 11 1019.1 1019.1 0.2
26/07:30pm 13.7 9.2 2.0 45 5.1 SW 15 22 8 12 1018.8 1018.8 0.2
26/07:00pm 13.9 9.2 2.9 47 4.9 SW 17 24 9 13 1018.2 1018.2 0.2
26/06:30pm 14.6 9.6 3.6 47 5.0 SSW 19 28 10 15 1017.9 1017.9 0.2
26/06:00pm 15.7 10.6 2.9 42 5.8 SW 19 30 10 16 1017.3 1017.3 0.2
26/05:30pm 15.4 10.1 3.0 43 5.6 SW 20 37 11 20 1017.3 1017.3 0.2
26/05:00pm 15.3 9.8 4.0 47 5.2 SW 22 37 12 20 1017.0 1017.0 0.2
26/04:30pm 16.7 10.7 3.2 40 6.2 WSW 24 35 13 19 1016.7 1016.7 0.2
26/04:00pm 16.0 9.3 3.9 44 5.6 SW 28 41 15 22 1016.4 1016.4 0.2
26/03:30pm 16.6 11.8 4.8 45 5.6 SW 19 28 10 15 1016.3 1016.3 0.0
26/03:00pm 15.5 10.8 2.9 42 5.7 SW 17 39 9 21 1016.2 1016.2 0.0
26/02:47pm 14.8 7.9 2.7 44 5.4 WSW 28 46 15 25 1016.2 1016.2 0.0
26/02:30pm 17.6 13.2 4.9 43 6.1 W 17 32 9 17 1015.9 1015.9 0.0
26/02:00pm 14.1 8.0 6.7 61 3.6 SSW 28 43 15 23 1015.8 1015.8 0.0
26/01:30pm 16.3 10.4 4.1 44 5.7 SW 24 37 13 20 1015.6 1015.6 0.0
26/01:00pm 15.5 10.7 5.4 51 4.8 WSW 20 39 11 21 1015.6 1015.6 0.0
26/12:30pm 15.8 8.7 3.6 44 5.6 SW 30 46 16 25 1015.1 1015.1 0.0
26/12:12pm 16.0 8.3 3.3 42 5.8 W 33 52 18 28 1015.1 1015.1 0.0
26/12:00pm 16.1 11.2 4.9 47 5.3 SW 20 30 11 16 1015.1 1015.1 0.0
26/11:30am 14.8 9.5 5.0 52 4.6 WSW 22 37 12 20 1014.8 1014.8 0.0
26/11:01am 15.1 8.3 3.2 45 5.4 WSW 28 46 15 25 1014.5 1014.5 0.0
26/11:00am 15.4 9.0 3.3 44 5.5 WSW 26 39 14 21 1014.5 1014.5 0.0
26/10:30am 14.3 9.3 3.5 48 4.9 W 19 35 10 19 1014.3 1014.3 0.0
26/10:06am 13.4 6.4 1.9 45 5.0 WSW 28 46 15 25 1014.0 1014.0 0.0
26/10:00am 13.7 7.0 1.7 44 5.2 WSW 26 39 14 21 1013.8 1013.7 0.0
26/09:32am 13.6 6.5 1.6 44 5.2 SW 28 46 15 25 1013.3 1013.2 0.0
26/09:30am 13.7 7.4 1.7 44 5.2 SW 24 46 13 25 1013.3 1013.2 0.0
26/09:00am 13.5 5.8 0.1 40 5.6 SSW 30 48 16 26 1012.7 1012.6 0.2
26/08:58am 13.5 6.2 0.1 40 5.6 SSW 28 48 15 26 1012.7 1012.6 0.2
26/08:56am 13.3 4.6 -0.2 39 5.6 SSW 35 48 19 26 1012.6 1012.5 0.2
26/08:30am 13.1 7.5 -0.2 40 5.5 W 19 24 10 13 1012.5 1012.4 0.2
26/08:00am 12.7 9.2 1.2 45 4.9 ENE 9 24 5 13 1012.0 1011.9 0.2
26/07:30am 12.6 8.3 1.0 45 4.9 S 13 22 7 12 1011.7 1011.6 0.2
26/07:00am 12.6 9.4 1.0 45 4.9 NNE 7 26 4 14 1011.4 1011.3 0.2
26/06:30am 12.9 9.0 0.9 44 5.1 NNE 11 24 6 13 1010.6 1010.5 0.2
26/06:00am 12.5 8.9 0.9 45 4.9 NE 9 17 5 9 1010.4 1010.3 0.2
26/05:34am 12.7 4.8 0.9 44 5.0 W 32 52 17 28 1009.6 1009.6 0.2
26/05:32am 12.8 3.5 0.7 43 5.1 W 39 52 21 28 1009.6 1009.6 0.2
26/05:30am 12.5 8.7 1.8 48 4.6 WSW 11 32 6 17 1009.5 1009.5 0.2
26/05:00am 12.4 10.0 5.1 61 3.4 N 7 24 4 13 1009.1 1009.1 0.2
26/04:30am 12.2 9.8 7.0 70 2.5 NNE 9 15 5 8 1008.6 1008.6 0.2
26/04:00am 12.3 8.9 7.6 73 2.3 NNW 15 26 8 14 1008.6 1008.6 0.2
26/03:30am 11.8 10.2 8.8 82 1.5 ENE 7 13 4 7 1008.4 1008.4 0.2
26/03:00am 12.7 9.8 6.7 67 2.9 SE 11 19 6 10 1008.3 1008.3 0.2
26/02:30am 12.4 9.2 6.8 68 2.7 NW 13 19 7 10 1008.3 1008.3 0.2
26/02:00am 12.4 7.3 6.1 65 3.0 NNW 22 35 12 19 1008.3 1008.3 0.2
26/01:30am 12.2 5.5 5.6 64 3.1 NNW 30 41 16 22 1008.1 1008.1 0.2
26/01:00am 12.3 6.2 4.9 60 3.4 N 26 39 14 21 1008.5 1008.5 0.2
26/12:30am 12.2 6.1 4.8 60 3.4 NNW 26 35 14 19 1009.0 1009.0 0.2
26/12:00am 12.3 6.6 4.9 60 3.4 N 24 43 13 23 1009.4 1009.4 0.2
 
Date/Time
EDT
Temp
°C
App
Temp
°C
Dew
Point
Rel
Hum
%
Delta-T
°C
Wind Press
QNH
hPa
Press
MSL
hPa
Rain
since 9 am
mm
Dir
 
Spd
km/h
Gust
km/h
Spd
kts
Gust
kts
25/11:49pm 12.4 5.5 4.5 58 3.6 NNW 30 56 16 30 1009.6 1009.6 0.2
25/11:30pm 12.4 6.6 4.5 58 3.6 NNW 24 35 13 19 1009.9 1009.9 0.2
25/11:00pm 12.4 7.0 4.3 57 3.7 NNW 22 39 12 21 1010.4 1010.3 0.2
25/10:30pm 12.4 7.3 4.0 56 3.8 NNW 20 33 11 18 1010.7 1010.6 0.2
25/10:00pm 12.5 7.3 3.6 54 4.0 NNW 20 30 11 16 1011.1 1011.0 0.2
25/09:30pm 12.8 7.1 2.9 51 4.4 NNW 22 35 12 19 1011.0 1010.9 0.2
25/09:00pm 12.8 7.4 2.6 50 4.5 NNW 20 32 11 17 1010.9 1010.8 0.2
25/08:30pm 13.0 7.7 1.6 46 4.9 NNW 19 32 10 17 1010.8 1010.7 0.2
25/08:00pm 13.4 7.7 0.3 40 5.5 NNW 20 37 11 20 1010.7 1010.6 0.2
25/07:30pm 13.9 7.4 0.1 39 5.8 NNW 24 39 13 21 1010.4 1010.3 0.2
25/07:00pm 14.1 7.6 0.1 38 5.9 NW 24 57 13 31 1010.0 1010.0 0.2
25/06:45pm 14.0 6.8 0.9 41 5.6 NW 28 48 15 26 1009.9 1009.9 0.2
25/06:30pm 13.7 8.9 4.6 54 4.2 WNW 19 33 10 18 1009.9 1009.9 0.2
25/06:00pm 14.4 7.1 2.5 44 5.3 N 30 39 16 21 1009.0 1009.0 0.2
25/05:36pm 16.0 8.1 0.9 36 6.6 NW 32 50 17 27 1008.9 1008.9 0.2
25/05:30pm 16.1 8.9 1.0 36 6.6 NW 28 39 15 21 1009.3 1009.3 0.2
25/05:06pm 15.0 7.8 3.1 45 5.4 NNW 30 50 16 27 1008.9 1008.9 0.2
25/05:00pm 15.4 8.3 3.4 44 5.5 NNW 30 43 16 23 1008.9 1008.9 0.2
25/04:30pm 14.8 6.9 4.5 50 4.8 NW 35 65 19 35 1008.5 1008.5 0.2
25/04:01pm 15.7 8.3 5.0 49 5.1 NNW 33 52 18 28 1008.0 1008.0 0.2
25/04:00pm 15.5 7.7 4.9 49 5.0 NNW 35 52 19 28 1008.0 1008.0 0.2
25/03:32pm 16.2 8.6 3.7 43 5.8 N 33 52 18 28 1007.5 1007.5 0.2
25/03:30pm 16.4 9.0 4.0 43 5.8 N 32 46 17 25 1007.6 1007.6 0.2
25/03:17pm 16.6 10.3 5.7 48 5.3 NNW 28 48 15 26 1007.7 1007.7 0.2
25/03:00pm 17.6 11.6 5.5 45 5.9 NW 26 39 14 21 1007.5 1007.5 0.2
25/02:30pm 15.5 7.7 4.9 49 5.0 NNW 35 43 19 23 1007.4 1007.4 0.2
25/02:00pm 16.5 11.9 3.9 43 5.9 WSW 17 33 9 18 1007.0 1007.0 0.2
25/01:30pm 16.8 13.8 4.3 43 5.9 W 9 19 5 10 1006.7 1006.7 0.2
25/01:00pm 18.8 12.6 2.3 33 7.6 W 24 41 13 22 1006.3 1006.3 0.2
25/12:30pm 18.0 9.7 2.3 35 7.2 W 35 57 19 31 1006.3 1006.3 0.2
25/12:02pm 17.5 10.2 2.4 36 6.9 WNW 30 48 16 26 1006.3 1006.3 0.2
25/12:00pm 17.9 11.1 3.3 37 6.8 W 28 43 15 23 1006.3 1006.3 0.2
25/11:30am 16.0 11.9 2.2 39 6.2 W 13 30 7 16 1006.3 1006.3 0.2
25/11:00am 15.9 11.9 0.7 35 6.6 W 11 28 6 15 1006.1 1006.1 0.2
25/10:30am 14.4 8.9 0.6 39 5.9 ESE 19 32 10 17 1005.7 1005.7 0.2
25/10:00am 14.4 10.0 0.6 39 5.9 WNW 13 26 7 14 1005.9 1005.9 0.0
25/09:30am 14.1 6.9 0.8 40 5.7 ESE 28 33 15 18 1005.1 1005.1 0.0
25/09:00am 13.8 9.6 1.6 43 5.3 SSE 13 24 7 13 1004.9 1004.9 2.8
25/08:30am 13.6 9.3 1.3 43 5.3 ESE 13 20 7 11 1004.5 1004.5 2.8
25/08:00am 13.3 9.1 1.8 45 5.0 SSE 13 24 7 13 1004.2 1004.2 2.8
25/07:34am 13.4 6.2 0.7 42 5.4 WSW 28 46 15 25 1003.2 1003.2 2.8
25/07:30am 13.2 9.4 1.7 45 5.0 S 11 30 6 16 1003.2 1003.2 2.8
25/07:00am 13.2 9.5 2.3 47 4.8 WNW 11 20 6 11 1003.0 1003.0 2.8
25/06:55am 13.3 5.0 2.1 46 4.9 W 35 56 19 30 1002.9 1002.9 2.8
25/06:30am 13.2 9.2 2.9 49 4.6 N 13 28 7 15 1002.7 1002.7 2.8
25/06:05am 13.3 5.6 2.2 47 4.9 WNW 32 50 17 27 1001.6 1001.6 2.8
25/06:00am 13.1 9.0 2.5 48 4.7 SSW 13 28 7 15 1001.9 1001.9 2.8
25/05:30am 12.5 8.6 3.6 54 4.0 ENE 13 20 7 11 1001.2 1001.2 2.8
25/05:00am 13.0 9.8 2.9 50 4.5 NW 9 20 5 11 1001.1 1001.1 2.8
25/04:30am 12.9 8.5 2.5 49 4.6 NW 15 32 8 17 1000.7 1000.7 2.8
25/04:00am 13.0 8.1 2.0 47 4.8 NNW 17 32 9 17 1000.8 1000.8 2.8
25/03:55am 13.0 5.9 1.4 45 5.0 WNW 28 69 15 37 1000.7 1000.7 2.8
25/03:30am 11.7 8.3 4.2 60 3.4 N 11 20 6 11 1000.9 1000.9 2.8
25/03:00am 11.6 6.7 4.1 60 3.4 N 19 30 10 16 1000.9 1000.9 2.8
25/02:30am 11.6 6.0 3.5 57 3.6 N 22 37 12 20 1001.1 1001.1 2.8
25/02:00am 12.0 5.2 3.0 54 4.0 N 28 48 15 26 1001.1 1001.1 2.8
25/01:41am 12.1 5.1 2.2 50 4.3 NNW 28 50 15 27 1000.4 1000.4 2.8
25/01:30am 11.9 5.7 2.3 52 4.2 N 24 41 13 22 1000.4 1000.4 2.8
25/01:00am 11.5 5.8 2.9 55 3.8 N 22 43 12 23 1000.9 1000.9 2.8
25/12:30am 11.7 6.0 3.1 55 3.8 N 22 41 12 22 1001.5 1001.5 2.8
25/12:00am 11.7 6.7 3.4 56 3.7 N 19 32 10 17 1001.8 1001.8 2.8
 
Date/Time
EDT
Temp
°C
App
Temp
°C
Dew
Point
Rel
Hum
%
Delta-T
°C
Wind Press
QNH
hPa
Press
MSL
hPa
Rain
since 9 am
mm
Dir
 
Spd
km/h
Gust
km/h
Spd
kts
Gust
kts
24/11:30pm 12.0 6.4 3.5 56 3.8 N 22 33 12 18 1002.1 1002.1 2.8
24/11:09pm 12.2 5.4 3.2 54 4.0 NW 28 46 15 25 1002.2 1002.2 2.8
24/11:00pm 12.5 4.8 2.5 50 4.4 NW 32 48 17 26 1002.2 1002.2 2.8
24/10:50pm 12.5 5.5 2.2 49 4.5 NW 28 52 15 28 1002.4 1002.4 2.8
24/10:30pm 12.5 6.8 3.1 52 4.2 NNW 22 35 12 19 1002.6 1002.6 2.8
24/10:00pm 12.9 5.9 2.2 48 4.7 NNW 28 39 15 21 1002.3 1002.3 2.8
24/09:30pm 13.6 6.7 0.1 39 5.6 NNW 26 35 14 19 1002.2 1002.2 2.8
24/09:00pm 14.1 9.9 1.5 42 5.5 W 13 20 7 11 1001.9 1001.9 2.8
24/08:30pm 14.4 9.3 4.3 50 4.7 NNW 20 28 11 15 1001.5 1001.5 2.8
24/08:00pm 14.5 9.8 7.9 64 3.3 N 22 32 12 17 1001.4 1001.4 2.8
24/07:30pm 14.3 13.9 12.9 91 0.8 ENE 7 17 4 9 1001.5 1001.5 2.8
24/07:00pm 14.2 13.7 12.7 91 0.8 WSW 7 13 4 7 1001.6 1001.6 2.8
24/06:30pm 14.1 13.3 13.0 93 0.6 NW 9 15 5 8 1001.4 1001.4 2.8
24/06:00pm 14.1 12.4 12.6 91 0.8 NNW 13 20 7 11 1001.6 1001.6 2.8
24/05:30pm 14.4 14.0 13.1 92 0.7 N 7 13 4 7 1001.7 1001.7 2.6
24/05:00pm 14.4 14.0 13.1 92 0.7 N 7 11 4 6 1002.1 1002.1 2.4
24/04:30pm 14.4 13.3 13.0 91 0.8 N 11 17 6 9 1002.6 1002.6 2.2
24/04:00pm 14.7 13.0 12.5 87 1.2 NW 13 20 7 11 1003.2 1003.2 1.0
24/03:30pm 15.7 13.8 10.6 71 2.7 N 11 17 6 9 1002.9 1002.9 0.4
24/03:00pm 16.2 14.1 11.2 72 2.7 N 13 20 7 11 1003.1 1003.1 0.4
24/02:30pm 15.6 12.5 10.3 70 2.8 NNW 17 24 9 13 1004.0 1004.0 0.4
24/02:00pm 15.8 13.0 10.1 69 3.0 N 15 24 8 13 1004.7 1004.7 0.4
24/01:30pm 15.8 12.5 9.5 66 3.3 N 17 20 9 11 1005.2 1005.2 0.4
24/01:00pm 15.4 13.3 9.9 70 2.9 NNW 11 19 6 10 1005.3 1005.3 0.4
24/12:30pm 14.7 9.9 9.0 68 2.9 NNW 24 35 13 19 1005.8 1005.8 0.4
24/12:00pm 14.1 9.7 9.0 71 2.6 N 22 32 12 17 1005.9 1005.9 0.4
24/11:30am 13.9 9.5 9.0 72 2.5 NNW 22 32 12 17 1006.7 1006.7 0.4
24/11:00am 12.9 8.2 9.4 79 1.8 N 24 35 13 19 1007.4 1007.4 0.4
24/10:30am 13.0 9.8 8.6 74 2.2 NNW 15 20 8 11 1008.2 1008.2 0.2
24/10:00am 13.0 10.3 7.5 69 2.7 N 11 20 6 11 1008.1 1008.1 0.0
24/09:30am 13.2 9.1 6.1 62 3.4 NNW 17 24 9 13 1008.7 1008.7 0.0
24/09:00am 12.8 8.7 6.3 64 3.1 NW 17 22 9 12 1008.2 1008.2 0.0
24/08:30am 12.8 7.3 6.1 64 3.2 NNW 24 33 13 18 1008.7 1008.7 0.0
24/08:00am 12.9 9.5 5.7 61 3.4 NNE 13 17 7 9 1008.8 1008.8 0.0
24/07:30am 12.4 8.9 5.3 62 3.3 N 13 20 7 11 1008.6 1008.6 0.0
24/07:00am 12.1 9.9 5.4 63 3.1 E 6 11 3 6 1008.6 1008.6 0.0
24/06:30am 12.3 8.8 5.4 63 3.2 NW 13 20 7 11 1008.8 1008.8 0.0
24/06:00am 11.6 9.4 6.3 70 2.5 NNE 7 13 4 7 1008.6 1008.6 0.0
24/05:30am 10.4 7.8 6.3 76 1.9 SSE 9 13 5 7 1008.8 1008.8 0.0
24/05:00am 10.9 6.8 6.0 72 2.3 N 17 26 9 14 1009.3 1009.3 0.0
24/04:30am 11.0 7.7 6.6 74 2.1 NW 13 20 7 11 1009.2 1009.2 0.0
24/04:00am 11.3 8.9 6.9 74 2.1 N 9 19 5 10 1009.1 1009.1 0.0
24/03:30am 11.6 9.7 7.7 77 1.9 N 7 11 4 6 1009.6 1009.6 0.0
24/03:00am 12.2 9.8 8.8 80 1.7 NNW 11 15 6 8 1010.0 1010.0 0.0
24/02:30am 11.9 10.8 9.9 87 1.0 NW 6 9 3 5 1009.9 1009.9 0.0
24/02:00am 12.4 12.0 11.1 92 0.7 N 4 7 2 4 1010.2 1010.2 0.0
24/01:30am 12.2 12.1 10.7 90 0.8 E 2 6 1 3 1010.6 1010.5 0.0
24/01:00am 12.6 10.8 10.7 88 1.0 W 11 13 6 7 1010.9 1010.8 0.0

Other Formats:

Comma delimited format used in spreadsheet applications
http://www.bom.gov.au/fwo/IDT60801/IDT60801.94970.axf

JavaScript Object Notation format (JSON) in row-major order
http://www.bom.gov.au/fwo/IDT60801/IDT60801.94970.json